LSGG/GVA METAR and TAF weather

Enter ICAO airport designator
Station Type Date Time Source
LSGG METAR 2021/09/28 16:50 UTC NOAA

LSGG 281650Z VRB02KT 9999 FEW035 18/12 Q1020 NOSIG


Station Type Date Time Source
LSGG Decoded METAR 2021/09/28 16:50 UTC NOAA

Geneve-Cointrin, Switzerland (LSGG) 46-15N 006-08E 416M
Sep 28, 2021 - 12:50 PM EDT / 2021.09.28 1650 UTC
Wind: Variable at 2 MPH (2 KT):0
Visibility: greater than 7 mile(s):0
Sky conditions: mostly clear
Temperature: 64 F (18 C)
Dew Point: 53 F (12 C)
Relative Humidity: 67%
Pressure (altimeter): 30.12 in. Hg (1020 hPa)
ob: LSGG 281650Z VRB02KT 9999 FEW035 18/12 Q1020 NOSIG
cycle: 17

Station Type Date Time Source
LSGG TAF 2021/09/28 15:35 UTC NOAA

TAF LSGG 281425Z 2815/2921 04008KT 9999 FEW035 TX20/2815Z TN12/2905Z TX19/2915Z
BECMG 2820/2823 23010KT
TEMPO 2823/2903 SHRA PROB30
TEMPO 2911/2915 SHRA

Example: see airport list